Guayama, PR (00785)

12:42 PM AST on December 25, 2014 (GMT -0400)
Manejo de Emergencias Guayama | Change Station
CLOSE
Current Station
Personal Weather Station
Location: Guayama, GUAYAMA
Elevation: 233 ft
Nearby Weather Stations

Elev 233 ft 17.98 °N, 66.11 °W | Updated 38 minutes ago

Overcast
Overcast
83.6 °F
Feels Like 87 °F
N
6.0
Wind Variable Wind from East
Gusts 18.0 mph

Today
High -- | Low -- °F
--% Chance of Precip.
Yesterday
High -- | Low -- °F
Precip. -- in
6:52 AM 5:56 PM
Waxing Crescent, 17% visible
Pressure 30.10 in
Visibility 10.0 miles
Clouds Few 2600 ft
Scattered Clouds 3300 ft
Scattered Clouds 8500 ft
Heat Index 87 °F
Dew Point 69 °F
Humidity 61%
Rainfall -999.00 in
Snow Depth Not available.
UV 5 out of 12
Pollen Not available.
Air Quality Not available.
Flu Activity Not available.
METAR TJSJ 251556Z 05014G23KT 10SM -RA FEW026 SCT033 SCT085 27/23 A3010 RMK AO2 RAE00B53 SLP192 P0001 T02670233

More Conditions Fewer Conditions

Pressure 30.10 in
Visibility 10.0 miles
Clouds Few 2600 ft
Scattered Clouds 3300 ft
Scattered Clouds 8500 ft
Heat Index 87 °F
Dew Point 69 °F
Humidity 61%
Rainfall -999.00 in
Snow Depth Not available.
UV 5 out of 12
Pollen Not available.
Air Quality Not available.
Flu Activity Not available.
METAR TJSJ 251556Z 05014G23KT 10SM -RA FEW026 SCT033 SCT085 27/23 A3010 RMK AO2 RAE00B53 SLP192 P0001 T02670233

More Conditions Fewer Conditions

10-Day Weather Forecast

Almanac

Astronomy

Dec. 25, 2014 Rise Set
Actual Time
Civil Twilight
Nautical Twilight
Astronomical Twilight
Moon
Length of Visible Light
Length of Day
Tomorrow will be .
, % of the Moon is Illuminated

Today's Extremes

State Highs State Lows

Community

WunderPhotos

Upload Photos

1,780,339 photos uploaded!

WunderBlogs® & News

Nearby

Air Quality

  Air Quality AQ Index Pollutant
Not available.

Snow Depth

Station Depth Elevation

Earthquake Activity

City Distance Mag. Time & Date
Minimum magnitude displayed is 2.5.

Coastal Water Temperatures

Place Temperature

Nearby Weather Stations